Time;durP1;ratioP1;P1;durP2;ratioP2;P2;SDS_P1;SDS_P2;PMS_P1;PMS_P2;Temp;Humidity;BMP_temperature;BMP_pressure;BME280_temperature;BME280_humidity;BME280_pressure;Samples;Min_cycle;Max_cycle;Signal;HPM_P1;HPM_P2
2022/01/17 00:03:57;;;;;;;22.30;14.18;;;;;;;5.71;83.54;100444.73;2931887;81;20974;-78
2022/01/17 00:07:59;;;;;;;25.70;15.20;;;;;;;5.70;83.36;100444.35;2932453;81;20951;-78
2022/01/17 00:12:01;;;;;;;22.15;14.03;;;;;;;5.80;82.90;100436.25;2932335;81;21002;-77
2022/01/17 00:20:25;;;;;;;18.48;12.53;;;;;;;5.85;82.28;100420.97;2932461;81;20994;-78
2022/01/17 00:24:21;;;;;;;16.23;12.00;;;;;;;5.90;82.01;100414.59;2930791;81;20946;-78
2022/01/17 00:28:23;;;;;;;19.62;13.00;;;;;;;5.95;81.41;100405.91;2929172;81;21475;-78
2022/01/17 00:32:25;;;;;;;23.55;13.15;;;;;;;5.98;80.87;100395.16;2926651;81;21538;-77
2022/01/17 00:36:26;;;;;;;21.00;15.30;;;;;;;6.01;80.50;100376.52;2927080;81;20930;-77
2022/01/17 00:40:28;;;;;;;23.45;14.43;;;;;;;6.00;80.63;100387.53;2927072;81;21021;-78
2022/01/17 00:44:30;;;;;;;21.60;14.45;;;;;;;5.97;80.28;100404.03;2926798;81;21087;-78
2022/01/17 00:48:31;;;;;;;17.75;13.62;;;;;;;5.97;80.32;100391.66;2927072;81;20954;-78
2022/01/17 00:52:33;;;;;;;22.75;14.28;;;;;;;5.96;80.48;100390.45;2926878;81;20986;-78
2022/01/17 00:56:34;;;;;;;16.67;13.05;;;;;;;6.01;80.68;100381.80;2927083;81;20930;-78
2022/01/17 01:00:37;;;;;;;19.07;13.08;;;;;;;6.02;81.02;100371.61;2927208;81;20966;-78
2022/01/17 01:04:39;;;;;;;22.05;13.18;;;;;;;6.00;81.71;100391.50;2926837;81;20949;-79
2022/01/17 01:08:40;;;;;;;23.92;13.68;;;;;;;5.98;83.23;100405.73;2926937;81;20965;-78
2022/01/17 01:12:45;;;;;;;18.37;12.37;;;;;;;5.94;83.62;100406.37;2926919;81;21036;-78
2022/01/17 01:16:47;;;;;;;15.98;12.73;;;;;;;5.84;84.10;100390.23;2926930;81;20946;-79
2022/01/17 01:29:20;;;;;;;15.68;12.65;;;;;;;5.72;85.36;100388.36;2926273;81;21133;-78
2022/01/17 01:33:27;;;;;;;18.23;12.80;;;;;;;5.73;85.62;100374.22;2926707;81;21025;-79
2022/01/17 01:37:26;;;;;;;18.98;12.68;;;;;;;5.68;85.89;100372.30;2926020;81;21049;-78
2022/01/17 01:41:27;;;;;;;19.30;12.80;;;;;;;5.65;86.25;100359.30;2926644;81;21561;-79
2022/01/17 01:45:29;;;;;;;22.80;14.93;;;;;;;5.70;86.54;100361.21;2926659;81;21021;-78
2022/01/17 01:49:31;;;;;;;16.15;13.68;;;;;;;5.64;86.77;100359.78;2926849;81;20998;-78
2022/01/17 01:53:32;;;;;;;17.80;13.48;;;;;;;5.58;87.41;100345.16;2926614;81;20966;-79
2022/01/17 01:57:34;;;;;;;20.80;12.37;;;;;;;5.74;87.61;100335.00;2926831;81;20973;-79
2022/01/17 02:01:37;;;;;;;23.52;16.05;;;;;;;5.73;87.57;100330.66;2926960;81;21015;-78
2022/01/17 02:05:38;;;;;;;15.72;11.83;;;;;;;5.69;87.88;100319.44;2926692;81;20985;-78
2022/01/17 02:09:40;;;;;;;21.35;14.87;;;;;;;5.67;88.12;100327.05;2926719;81;21545;-78
2022/01/17 02:13:42;;;;;;;20.60;12.37;;;;;;;5.77;88.38;100322.93;2926987;81;20951;-78
2022/01/17 02:17:53;;;;;;;20.00;14.38;;;;;;;5.62;88.27;100282.49;2926773;81;21020;-78
2022/01/17 02:21:50;;;;;;;18.25;13.78;;;;;;;5.75;88.05;100270.70;2925670;81;21029;-79
2022/01/17 02:25:55;;;;;;;19.12;12.58;;;;;;;5.85;87.53;100248.05;2926725;81;20994;-78
2022/01/17 02:29:54;;;;;;;23.15;15.03;;;;;;;5.93;87.11;100234.86;2934213;81;21004;-78
2022/01/17 02:33:57;;;;;;;21.40;15.20;;;;;;;5.93;86.92;100250.22;2937353;81;21009;-78
2022/01/17 02:37:58;;;;;;;18.20;12.82;;;;;;;5.99;86.80;100217.30;2941515;81;20958;-78
2022/01/17 02:42:04;;;;;;;18.17;14.65;;;;;;;5.97;86.89;100262.27;2941543;81;20943;-78
2022/01/17 02:50:09;;;;;;;20.20;13.75;;;;;;;6.04;86.64;100236.85;2885164;82;20970;-77
2022/01/17 02:54:10;;;;;;;21.20;15.00;;;;;;;5.99;86.73;100232.69;2884880;82;20968;-78
2022/01/17 02:58:13;;;;;;;19.87;14.25;;;;;;;6.11;86.95;100235.50;2885024;82;21021;-77
2022/01/17 03:02:14;;;;;;;16.55;14.53;;;;;;;6.02;87.30;100218.45;2885054;82;20998;-78
2022/01/17 03:06:17;;;;;;;18.27;13.35;;;;;;;5.97;88.01;100225.80;2884817;82;21507;-78
2022/01/17 03:14:27;;;;;;;21.33;13.45;;;;;;;5.98;88.12;100238.05;2884852;82;20986;-77
2022/01/17 03:18:33;;;;;;;31.65;13.65;;;;;;;5.98;87.46;100224.84;2884942;82;20980;-78
2022/01/17 03:22:35;;;;;;;20.37;12.93;;;;;;;5.97;86.73;100227.11;2885087;82;21025;-78
2022/01/17 03:26:37;;;;;;;17.92;14.50;;;;;;;6.09;86.50;100225.05;2884799;82;21195;-77
2022/01/17 03:30:39;;;;;;;15.05;11.70;;;;;;;6.12;86.05;100220.89;2922357;81;21029;-78
2022/01/17 03:34:42;;;;;;;14.85;11.80;;;;;;;6.16;85.67;100220.69;2926792;81;20951;-79
2022/01/17 03:38:44;;;;;;;15.20;11.55;;;;;;;6.08;85.60;100200.88;2926856;81;21049;-78
2022/01/17 03:42:45;;;;;;;19.62;13.08;;;;;;;6.16;85.58;100194.28;2927131;81;20957;-78
2022/01/17 03:46:47;;;;;;;13.55;10.78;;;;;;;6.19;85.14;100192.75;2927356;81;21454;-79
2022/01/17 03:50:48;;;;;;;17.32;12.75;;;;;;;6.18;84.93;100186.61;2927144;81;21005;-78
2022/01/17 03:54:50;;;;;;;16.85;12.63;;;;;;;6.24;84.54;100173.48;2927401;81;21021;-77
2022/01/17 03:58:52;;;;;;;14.53;9.95;;;;;;;6.25;84.20;100186.59;2927453;81;21016;-78
2022/01/17 04:02:54;;;;;;;10.65;8.85;;;;;;;6.24;83.84;100159.81;2930653;81;20970;-72
2022/01/17 04:06:56;;;;;;;14.40;9.30;;;;;;;6.26;83.76;100178.19;2930920;81;20973;-72
2022/01/17 04:10:57;;;;;;;18.50;12.03;;;;;;;6.31;84.22;100162.91;2930677;81;21033;-73
2022/01/17 04:14:59;;;;;;;17.67;11.50;;;;;;;6.31;84.29;100160.72;2931309;81;20963;-72
2022/01/17 04:19:01;;;;;;;14.60;10.28;;;;;;;6.28;84.86;100163.08;2931452;81;20990;-72
2022/01/17 04:23:06;;;;;;;14.23;10.45;;;;;;;6.27;84.83;100142.89;2931252;81;20915;-73
2022/01/17 04:27:08;;;;;;;15.97;10.33;;;;;;;6.27;84.67;100150.36;2930540;81;20978;-72
2022/01/17 04:31:09;;;;;;;17.73;9.10;;;;;;;6.04;85.32;100145.26;2921978;81;21550;-72
2022/01/17 04:35:14;;;;;;;10.75;9.15;;;;;;;5.97;85.50;100128.09;2922287;81;20927;-72
2022/01/17 04:39:17;;;;;;;14.07;9.35;;;;;;;5.96;84.95;100138.29;2922294;81;20943;-72
2022/01/17 04:43:22;;;;;;;14.40;8.88;;;;;;;5.95;85.49;100141.87;2922274;81;20991;-72
2022/01/17 04:47:22;;;;;;;13.03;10.23;;;;;;;5.96;84.99;100150.17;2921850;81;21050;-72
2022/01/17 04:51:24;;;;;;;12.90;9.63;;;;;;;5.97;84.79;100144.77;2922227;81;21503;-72
2022/01/17 04:55:27;;;;;;;10.55;7.70;;;;;;;6.03;85.18;100147.53;2922257;81;21026;-72
2022/01/17 04:59:28;;;;;;;11.18;7.22;;;;;;;5.95;85.48;100144.52;2922238;81;20983;-71
2022/01/17 05:03:30;;;;;;;11.08;7.20;;;;;;;5.93;85.36;100137.17;2922015;81;20987;-73
2022/01/17 05:07:35;;;;;;;11.55;6.70;;;;;;;5.97;85.60;100132.06;2921998;81;21550;-70
2022/01/17 05:11:36;;;;;;;13.83;8.88;;;;;;;5.99;85.28;100133.66;2923060;81;21007;-70
2022/01/17 05:15:46;;;;;;;11.05;9.00;;;;;;;5.94;85.55;100124.34;2922601;81;21042;-71
2022/01/17 05:19:52;;;;;;;10.93;7.85;;;;;;;5.99;85.31;100123.56;2921155;81;20951;-70
2022/01/17 05:23:53;;;;;;;15.18;8.55;;;;;;;5.96;86.24;100105.28;2920624;81;20971;-71
2022/01/17 05:27:55;;;;;;;16.35;8.95;;;;;;;5.93;86.62;100089.65;2872191;81;21054;-71
2022/01/17 05:31:56;;;;;;;10.25;7.83;;;;;;;5.92;86.12;100113.04;2887151;82;20963;-71
2022/01/17 05:35:58;;;;;;;11.75;8.63;;;;;;;5.96;85.77;100142.25;2908606;81;20970;-71
2022/01/17 05:40:00;;;;;;;10.93;7.12;;;;;;;6.05;85.59;100142.98;2886454;82;20978;-71
2022/01/17 05:44:02;;;;;;;10.38;8.85;;;;;;;6.08;85.12;100148.06;2886594;82;20943;-69
2022/01/17 05:48:04;;;;;;;10.98;7.80;;;;;;;6.11;84.73;100148.34;2891487;81;20963;-70
2022/01/17 05:52:06;;;;;;;10.30;7.08;;;;;;;6.16;84.04;100166.55;2886115;82;20993;-70
2022/01/17 05:56:08;;;;;;;10.20;9.05;;;;;;;6.17;83.97;100142.66;2885774;82;21034;-70
2022/01/17 06:00:16;;;;;;;9.95;6.62;;;;;;;6.20;84.28;100170.67;2888130;81;21523;-70
2022/01/17 06:04:17;;;;;;;10.28;8.98;;;;;;;6.23;84.35;100175.75;2939571;81;21518;-70
2022/01/17 06:08:19;;;;;;;12.33;8.80;;;;;;;6.24;84.86;100121.97;2939565;81;20970;-69
2022/01/17 06:12:21;;;;;;;10.32;8.40;;;;;;;6.21;85.07;100124.36;2939642;81;20954;-70
2022/01/17 06:16:23;;;;;;;15.38;8.93;;;;;;;6.22;85.85;100113.30;2917352;81;20994;-70
2022/01/17 06:20:24;;;;;;;15.70;9.45;;;;;;;6.07;86.36;100083.48;2939682;81;20978;-70
2022/01/17 06:24:26;;;;;;;10.18;8.15;;;;;;;6.14;86.43;100060.98;2939726;81;20982;-70
2022/01/17 06:28:27;;;;;;;12.53;8.20;;;;;;;6.11;85.67;100102.13;2933270;81;21002;-70
2022/01/17 06:32:30;;;;;;;8.93;7.05;;;;;;;6.15;84.27;100041.55;2883015;82;20991;-70
2022/01/17 06:36:32;;;;;;;9.98;5.37;;;;;;;6.22;83.39;100061.80;2917662;81;21464;-70
2022/01/17 06:40:34;;;;;;;6.10;5.37;;;;;;;6.32;82.58;100052.78;2883455;82;21057;-70
2022/01/17 06:44:35;;;;;;;5.58;4.28;;;;;;;6.43;81.95;100052.41;2883538;82;21038;-70
2022/01/17 06:48:37;;;;;;;18.60;6.25;;;;;;;6.46;81.44;100030.69;2883410;82;20979;-70
2022/01/17 06:52:39;;;;;;;8.53;5.47;;;;;;;6.52;81.60;100006.50;2883525;82;21010;-70
2022/01/17 06:56:44;;;;;;;9.98;6.58;;;;;;;6.48;81.97;99968.01;2883472;82;20966;-70
2022/01/17 07:00:44;;;;;;;9.75;6.65;;;;;;;6.45;83.09;99943.13;2883348;82;20971;-70
2022/01/17 07:04:46;;;;;;;8.03;5.78;;;;;;;6.36;83.88;99951.22;2883153;82;21010;-70
2022/01/17 07:08:48;;;;;;;9.25;5.65;;;;;;;6.28;85.42;99959.21;2883331;82;21017;-70
2022/01/17 07:12:50;;;;;;;7.20;5.47;;;;;;;6.21;86.68;99983.51;2918044;81;20990;-70
2022/01/17 07:16:51;;;;;;;7.10;3.77;;;;;;;6.21;85.88;100010.78;2883478;82;21026;-70
2022/01/17 07:20:53;;;;;;;5.67;3.85;;;;;;;6.14;85.88;100005.06;2883755;82;20991;-70
2022/01/17 07:24:56;;;;;;;5.67;3.35;;;;;;;6.19;85.72;100009.19;2883626;82;20970;-69
2022/01/17 07:28:58;;;;;;;8.65;3.83;;;;;;;6.11;85.23;99972.73;2899413;80;20971;-70
2022/01/17 07:32:59;;;;;;;3.77;3.08;;;;;;;6.11;85.50;99930.48;2900246;82;20991;-70
2022/01/17 07:37:01;;;;;;;6.28;3.10;;;;;;;6.02;85.35;99950.43;2900277;82;20932;-70
2022/01/17 07:41:03;;;;;;;8.45;3.25;;;;;;;6.04;85.47;99927.90;2909535;82;21487;-70
2022/01/17 07:45:12;;;;;;;5.20;2.45;;;;;;;6.03;85.65;99940.23;2954086;80;20976;-69
2022/01/17 07:49:14;;;;;;;8.73;3.40;;;;;;;5.92;85.21;99930.88;2909249;82;21023;-70
2022/01/17 07:53:16;;;;;;;4.72;2.80;;;;;;;5.97;85.98;99869.35;2953986;80;20943;-70
2022/01/17 07:57:19;;;;;;;5.08;3.22;;;;;;;5.97;86.43;99927.44;2909203;82;20963;-70
2022/01/17 08:01:21;;;;;;;3.90;2.55;;;;;;;5.99;86.70;99918.47;2953737;80;21420;-69
2022/01/17 08:05:23;;;;;;;3.62;2.60;;;;;;;5.97;87.43;99915.55;2899958;82;20960;-69
2022/01/17 08:09:32;;;;;;;2.67;2.47;;;;;;;5.95;89.35;99877.86;2899752;82;20984;-70
2022/01/17 08:13:33;;;;;;;2.92;2.42;;;;;;;5.79;90.77;99911.04;2908879;82;21022;-70
2022/01/17 08:17:35;;;;;;;5.50;2.50;;;;;;;5.77;91.78;99904.56;2953273;80;20967;-70
2022/01/17 08:21:37;;;;;;;7.50;2.50;;;;;;;5.72;92.78;99898.76;2899681;82;20987;-70
2022/01/17 08:25:39;;;;;;;4.87;2.10;;;;;;;5.64;93.45;99857.52;2899530;82;20975;-70
2022/01/17 08:29:40;;;;;;;7.15;2.58;;;;;;;5.60;93.75;99821.73;2899203;82;20964;-70
2022/01/17 08:33:42;;;;;;;3.75;2.15;;;;;;;5.66;94.08;99868.80;2908746;81;20975;-70
2022/01/17 08:37:44;;;;;;;4.25;2.27;;;;;;;5.66;93.67;99865.70;2953393;80;20947;-70
2022/01/17 08:41:47;;;;;;;4.75;2.60;;;;;;;5.59;93.02;99820.88;2899311;82;21019;-70
2022/01/17 08:45:49;;;;;;;6.33;2.02;;;;;;;5.60;93.46;99875.83;2899082;82;20983;-70
2022/01/17 08:49:51;;;;;;;3.80;2.22;;;;;;;5.67;93.03;99797.92;2898882;82;20951;-70
2022/01/17 08:53:53;;;;;;;4.78;1.92;;;;;;;5.80;93.01;99799.27;2899597;82;21002;-70
2022/01/17 08:57:55;;;;;;;2.95;1.62;;;;;;;5.77;92.22;99805.59;2899387;82;21472;-70
2022/01/17 09:01:56;;;;;;;3.08;1.35;;;;;;;5.82;92.01;99755.95;2899558;82;20999;-70
2022/01/17 09:05:58;;;;;;;8.85;2.05;;;;;;;5.76;91.39;99788.06;2899666;82;20973;-70
2022/01/17 09:10:00;;;;;;;3.47;1.17;;;;;;;5.78;91.02;99786.16;2899948;82;20979;-70
2022/01/17 09:14:01;;;;;;;2.70;1.52;;;;;;;5.89;90.88;99779.27;2909072;82;20940;-70
2022/01/17 09:18:06;;;;;;;6.53;1.40;;;;;;;5.95;90.45;99779.68;2953685;80;20948;-70
2022/01/17 09:22:09;;;;;;;2.45;1.35;;;;;;;6.03;90.72;99812.67;2900260;82;21033;-70
2022/01/17 09:26:11;;;;;;;2.20;1.40;;;;;;;6.05;90.49;99807.62;2900089;82;20966;-70
2022/01/17 09:30:15;;;;;;;8.83;2.42;;;;;;;6.08;90.40;99813.18;2903899;81;20976;-70
2022/01/17 09:34:17;;;;;;;5.20;1.45;;;;;;;6.16;90.23;99862.81;2909909;81;20967;-69
2022/01/17 09:38:19;;;;;;;5.60;2.17;;;;;;;6.26;89.79;99817.62;2932695;81;20982;-70
2022/01/17 09:42:21;;;;;;;3.22;1.57;;;;;;;6.26;90.05;99837.42;2932927;81;20975;-70
2022/01/17 09:46:26;;;;;;;3.77;1.32;;;;;;;6.27;89.30;99814.02;3023891;78;20998;-70
2022/01/17 09:50:34;;;;;;;5.25;1.70;;;;;;;6.29;89.14;99788.37;2927108;81;21017;-70
2022/01/17 09:54:35;;;;;;;7.20;2.02;;;;;;;6.37;89.41;99789.97;3022859;78;20908;-69
2022/01/17 09:58:39;;;;;;;7.50;1.20;;;;;;;6.36;88.89;99801.95;2927321;81;20995;-70
2022/01/17 10:02:41;;;;;;;3.27;1.42;;;;;;;6.30;88.87;99795.34;2964138;80;20939;-70
2022/01/17 10:06:52;;;;;;;1.67;1.30;;;;;;;6.34;89.99;99802.08;2910401;81;21322;-70
2022/01/17 10:11:00;;;;;;;1.98;1.02;;;;;;;6.36;90.05;99777.72;2909861;82;20955;-70
2022/01/17 10:15:05;;;;;;;4.08;1.75;;;;;;;6.33;89.70;99788.51;2932643;81;20935;-70
2022/01/17 10:19:05;;;;;;;1.85;1.32;;;;;;;6.35;90.40;99810.84;3023374;78;21444;-70
2022/01/17 10:23:30;;;;;;;4.12;1.10;;;;;;;6.50;90.16;99722.53;3024002;78;20947;-70
2022/01/17 10:27:46;;;;;;;5.12;1.70;;;;;;;6.69;90.56;99770.92;3019451;78;20970;-70
2022/01/17 10:35:36;;;;;;;3.37;1.70;;;;;;;6.67;87.93;99741.09;3022944;78;20931;-70
2022/01/17 10:39:58;;;;;;;2.22;1.50;;;;;;;6.79;88.78;99762.30;3022904;78;20944;-70
2022/01/17 10:43:59;;;;;;;6.03;2.15;;;;;;;6.82;89.85;99772.17;3022187;78;20942;-71
2022/01/17 10:48:03;;;;;;;3.83;2.37;;;;;;;6.77;90.01;99798.58;3022871;78;20974;-71
2022/01/17 10:52:04;;;;;;;3.72;2.45;;;;;;;6.71;90.78;99815.73;3023077;78;20939;-70
2022/01/17 10:56:09;;;;;;;13.25;3.33;;;;;;;6.66;91.36;99775.09;3023089;78;20994;-71
2022/01/17 11:00:16;;;;;;;3.77;2.00;;;;;;;6.60;92.52;99805.95;3023092;78;21021;-71
2022/01/17 11:04:35;;;;;;;5.10;2.77;;;;;;;6.66;93.52;99808.13;3022438;78;20903;-71
2022/01/17 11:08:39;;;;;;;3.58;2.42;;;;;;;6.61;92.26;99806.80;3023695;78;20920;-70
2022/01/17 11:12:41;;;;;;;4.97;2.98;;;;;;;6.65;92.47;99830.23;3022917;78;20927;-70
2022/01/17 11:16:43;;;;;;;2.50;2.08;;;;;;;6.67;92.58;99819.06;3023373;78;20900;-70
2022/01/17 11:20:50;;;;;;;4.95;3.52;;;;;;;6.67;93.30;99894.89;3022959;78;28130;-71
2022/01/17 11:24:52;;;;;;;4.20;2.55;;;;;;;6.73;93.34;99953.09;3022617;78;20971;-70
2022/01/17 11:28:54;;;;;;;9.30;1.75;;;;;;;6.71;93.31;100062.42;3023287;78;21015;-70
2022/01/17 11:32:59;;;;;;;0.90;0.30;;;;;;;5.90;88.74;100173.02;3022903;78;21026;-69
2022/01/17 11:37:02;;;;;;;3.83;1.80;;;;;;;4.45;91.49;100123.77;3021456;78;21030;-71
2022/01/17 11:41:05;;;;;;;2.65;1.17;;;;;;;3.76;93.91;100119.36;3021038;78;20970;-71
2022/01/17 11:45:26;;;;;;;3.15;1.30;;;;;;;3.35;94.57;100128.63;3020816;78;21459;-73
2022/01/17 11:49:35;;;;;;;1.98;0.85;;;;;;;3.12;95.86;100123.66;3021028;78;20966;-71
2022/01/17 11:53:39;;;;;;;7.10;1.02;;;;;;;3.09;95.73;100115.94;2906254;81;21007;-70
2022/01/17 11:57:40;;;;;;;3.62;0.37;;;;;;;3.23;95.77;100112.56;2952024;80;21003;-70
2022/01/17 12:01:42;;;;;;;0.80;0.70;;;;;;;3.28;93.89;100123.67;2907604;82;20948;-70
2022/01/17 12:05:43;;;;;;;1.22;1.15;;;;;;;3.45;91.07;100104.82;2952573;80;20971;-70
2022/01/17 12:09:45;;;;;;;1.45;0.70;;;;;;;3.56;89.26;100153.75;2898912;82;20995;-70
2022/01/17 12:13:47;;;;;;;10.55;5.65;;;;;;;3.66;87.44;100171.64;2908789;82;21334;-69
2022/01/17 12:17:49;;;;;;;17.57;9.98;;;;;;;3.76;85.43;100170.67;2953564;80;21512;-68
2022/01/17 12:22:06;;;;;;;7.53;3.60;;;;;;;3.81;82.35;100164.22;2900023;82;20979;-68
2022/01/17 12:26:29;;;;;;;10.28;3.25;;;;;;;3.89;81.02;100168.20;2899832;82;21007;-67
2022/01/17 12:30:47;;;;;;;1.32;0.90;;;;;;;3.98;81.43;100184.81;2901388;82;20972;-67
2022/01/17 12:34:56;;;;;;;5.08;1.98;;;;;;;3.96;81.67;100173.52;2908473;81;21002;-67
2022/01/17 12:39:23;;;;;;;4.10;1.07;;;;;;;3.95;81.63;100174.45;2908811;81;20944;-67
2022/01/17 12:43:35;;;;;;;48.08;24.25;;;;;;;3.98;80.88;100177.74;2908465;82;21479;-67
2022/01/17 12:47:40;;;;;;;60.33;24.12;;;;;;;4.03;82.20;100195.92;2917834;81;21413;-66
2022/01/17 12:51:46;;;;;;;69.30;30.52;;;;;;;4.04;81.04;100217.36;2923482;81;21002;-67
2022/01/17 12:55:55;;;;;;;48.52;23.02;;;;;;;4.10;80.42;100231.48;2923529;81;20934;-66
2022/01/17 12:59:56;;;;;;;22.85;9.33;;;;;;;4.19;80.89;100227.97;2895598;81;20958;-67
2022/01/17 13:04:06;;;;;;;17.10;7.85;;;;;;;4.07;79.01;100229.03;2923694;81;21458;-67
2022/01/17 13:08:07;;;;;;;9.43;4.35;;;;;;;4.11;79.58;100240.25;2923539;81;21033;-67
2022/01/17 13:12:10;;;;;;;3.30;1.37;;;;;;;4.22;78.92;100231.75;2923547;81;20942;-67
2022/01/17 13:16:13;;;;;;;1.87;1.17;;;;;;;4.25;78.12;100252.18;2923745;81;20970;-67
2022/01/17 13:20:15;;;;;;;0.75;0.75;;;;;;;4.31;77.64;100248.33;2923788;81;21013;-67
2022/01/17 13:28:31;;;;;;;1.50;1.00;;;;;;;4.26;76.19;100294.69;2923265;81;20942;-67
2022/01/17 13:32:34;;;;;;;2.45;0.65;;;;;;;4.25;74.57;100287.73;2917689;81;21466;-67
2022/01/17 13:36:37;;;;;;;2.12;1.45;;;;;;;4.20;74.36;100302.91;2926916;81;20979;-67
2022/01/17 13:40:39;;;;;;;3.33;2.02;;;;;;;4.14;73.67;100319.92;3023451;78;20962;-67
2022/01/17 13:44:41;;;;;;;2.90;2.45;;;;;;;4.12;76.40;100328.34;3023536;78;20967;-67
2022/01/17 13:48:45;;;;;;;2.60;1.85;;;;;;;4.11;77.84;100309.53;3024384;78;21769;-68
2022/01/17 13:52:46;;;;;;;4.17;2.42;;;;;;;4.09;76.25;100351.37;3026366;78;20943;-68
2022/01/17 13:56:48;;;;;;;3.83;1.92;;;;;;;4.05;75.03;100344.09;3026363;78;21451;-68
2022/01/17 14:00:55;;;;;;;2.35;1.22;;;;;;;4.02;74.03;100333.73;3026410;78;20927;-67
2022/01/17 14:04:55;;;;;;;5.17;2.45;;;;;;;3.94;75.20;100342.52;3025463;78;21484;-67
2022/01/17 14:08:59;;;;;;;6.42;2.65;;;;;;;3.85;74.05;100364.42;3025901;78;20939;-68
2022/01/17 14:13:02;;;;;;;4.85;2.08;;;;;;;3.82;74.62;100383.02;3026142;78;20978;-67
2022/01/17 14:17:04;;;;;;;11.40;4.35;;;;;;;3.72;73.04;100390.98;3026467;78;20978;-68
2022/01/17 14:21:05;;;;;;;7.72;4.30;;;;;;;3.78;75.15;100388.06;3026553;78;20939;-67
2022/01/17 14:25:22;;;;;;;9.28;2.58;;;;;;;3.76;75.45;100413.60;3026120;78;20968;-66
2022/01/17 14:29:26;;;;;;;;;;;;;;;3.80;77.82;100417.77;3028486;78;20951;-66
2022/01/17 14:33:28;;;;;;;4.47;2.70;;;;;;;3.75;76.59;100418.93;3025623;78;20125;-66
2022/01/17 14:37:32;;;;;;;3.27;2.60;;;;;;;3.78;77.02;100423.58;3001313;78;21009;-67
2022/01/17 14:41:39;;;;;;;5.58;3.00;;;;;;;3.79;77.40;100430.55;3026347;78;20954;-67
2022/01/17 14:45:49;;;;;;;4.65;2.35;;;;;;;3.70;76.72;100446.78;3026098;78;20955;-67
2022/01/17 14:49:57;;;;;;;5.05;2.40;;;;;;;3.66;76.95;100472.42;3026059;78;21030;-67
2022/01/17 14:54:14;;;;;;;7.85;3.27;;;;;;;3.60;76.11;100495.06;3026160;78;20959;-67
2022/01/17 15:02:27;;;;;;;5.17;2.60;;;;;;;3.39;77.05;100516.23;3025672;78;20982;-67
2022/01/17 15:06:22;;;;;;;3.60;2.45;;;;;;;3.35;77.39;100532.25;3023494;78;20939;-67
2022/01/17 15:10:29;;;;;;;8.78;4.45;;;;;;;3.23;76.65;100544.17;3025995;78;20959;-69
2022/01/17 15:14:31;;;;;;;3.95;2.98;;;;;;;3.17;76.27;100559.80;3026035;78;20998;-69
2022/01/17 15:18:32;;;;;;;6.35;4.22;;;;;;;3.08;76.08;100594.38;3025957;78;21475;-68
2022/01/17 15:22:35;;;;;;;7.45;3.47;;;;;;;3.10;77.28;100608.30;3025624;78;20939;-69
2022/01/17 15:26:38;;;;;;;12.88;6.03;;;;;;;3.08;77.50;100614.95;3025725;78;20986;-69
2022/01/17 15:30:40;;;;;;;6.85;3.37;;;;;;;2.93;76.53;100644.07;3025292;78;20962;-69
2022/01/17 15:34:42;;;;;;;7.75;3.80;;;;;;;2.89;77.07;100643.82;3025823;78;20987;-69
2022/01/17 15:38:44;;;;;;;7.83;4.12;;;;;;;2.93;76.76;100655.06;3025579;78;20994;-69
2022/01/17 15:42:46;;;;;;;12.15;7.78;;;;;;;2.87;75.89;100665.38;3025412;78;20974;-69
2022/01/17 15:46:50;;;;;;;16.02;6.45;;;;;;;2.94;76.37;100682.56;3037404;78;20966;-69
2022/01/17 15:50:51;;;;;;;9.83;4.53;;;;;;;2.90;76.55;100698.09;3043958;78;21538;-69
2022/01/17 15:54:55;;;;;;;14.10;5.03;;;;;;;2.81;75.80;100715.09;3025404;78;20955;-69
2022/01/17 15:58:56;;;;;;;11.45;6.42;;;;;;;2.73;75.61;100725.09;3025483;78;20947;-69
2022/01/17 16:02:59;;;;;;;9.10;4.90;;;;;;;2.74;75.70;100735.13;3025492;78;20994;-69
2022/01/17 16:07:00;;;;;;;10.30;6.17;;;;;;;2.70;76.44;100736.57;3025436;78;20990;-69
2022/01/17 16:11:02;;;;;;;7.45;4.72;;;;;;;2.71;76.46;100746.63;3025561;78;20951;-69
2022/01/17 16:15:05;;;;;;;7.87;4.65;;;;;;;2.65;76.61;100762.19;3025442;78;21511;-69
2022/01/17 16:19:08;;;;;;;7.33;3.72;;;;;;;2.63;76.82;100768.41;3025399;78;21022;-69
2022/01/17 16:23:10;;;;;;;8.75;4.62;;;;;;;2.59;76.83;100776.02;3025477;78;20958;-69
2022/01/17 16:27:12;;;;;;;7.25;4.22;;;;;;;2.57;77.49;100790.55;3025335;78;20982;-69
2022/01/17 16:31:13;;;;;;;7.15;4.67;;;;;;;2.56;77.58;100791.47;3018252;78;20973;-69
2022/01/17 16:35:15;;;;;;;6.40;4.03;;;;;;;2.48;77.41;100801.41;2991247;79;20980;-69
2022/01/17 16:39:17;;;;;;;10.40;5.62;;;;;;;2.48;77.00;100805.34;2991241;79;21474;-69
2022/01/17 16:43:19;;;;;;;11.85;4.42;;;;;;;2.46;77.69;100821.18;2991383;78;20985;-69
2022/01/17 16:47:21;;;;;;;7.62;5.20;;;;;;;2.36;77.25;100823.31;2990879;78;20985;-69
2022/01/17 16:51:23;;;;;;;12.15;5.78;;;;;;;2.42;77.43;100833.56;2991425;79;21016;-69
2022/01/17 16:55:24;;;;;;;16.90;7.83;;;;;;;2.43;76.91;100853.66;2991339;79;20949;-69
2022/01/17 16:59:26;;;;;;;27.00;13.98;;;;;;;2.38;75.89;100868.74;2991203;78;20966;-69
2022/01/17 17:03:28;;;;;;;44.58;20.72;;;;;;;2.50;76.65;100875.73;2991090;79;20981;-69
2022/01/17 17:07:30;;;;;;;44.53;19.00;;;;;;;2.49;75.43;100896.34;2991153;79;21434;-69
2022/01/17 17:11:32;;;;;;;87.70;38.88;;;;;;;2.53;76.59;100927.69;2991366;79;20902;-69
2022/01/17 17:15:35;;;;;;;86.63;44.53;;;;;;;2.39;75.63;100943.11;2991376;79;20961;-69
2022/01/17 17:19:37;;;;;;;32.70;19.45;;;;;;;2.42;76.01;100957.43;2990812;79;20957;-68
2022/01/17 17:23:38;;;;;;;20.37;11.55;;;;;;;2.38;75.85;100967.21;2990654;79;20942;-69
2022/01/17 17:27:41;;;;;;;13.35;10.28;;;;;;;2.40;76.21;100973.27;2990609;77;20953;-69
2022/01/17 17:31:43;;;;;;;19.17;10.53;;;;;;;2.34;76.72;100979.19;2999432;78;21522;-69
2022/01/17 17:35:45;;;;;;;13.72;7.87;;;;;;;2.35;77.11;100986.98;3025277;78;20982;-68
2022/01/17 17:39:47;;;;;;;28.98;9.35;;;;;;;2.18;77.33;101001.20;3025173;78;20970;-68
2022/01/17 17:43:49;;;;;;;12.63;8.23;;;;;;;2.26;77.25;101008.34;3025159;78;20978;-70
2022/01/17 17:47:51;;;;;;;17.82;7.80;;;;;;;2.27;77.81;101013.98;3025172;78;20982;-69
2022/01/17 17:51:52;;;;;;;21.55;11.45;;;;;;;2.23;77.67;101026.83;3025685;78;20982;-68
2022/01/17 17:55:54;;;;;;;23.10;8.85;;;;;;;2.26;78.25;101034.59;3025318;78;21518;-69
2022/01/17 17:59:55;;;;;;;16.77;6.25;;;;;;;2.18;77.54;101041.89;3012188;78;21018;-68
2022/01/17 18:03:57;;;;;;;20.92;6.55;;;;;;;2.18;78.26;101057.17;2931196;81;20985;-69
2022/01/17 18:07:59;;;;;;;22.35;13.65;;;;;;;2.16;78.64;101064.69;2930456;81;20969;-68
2022/01/17 18:12:01;;;;;;;40.98;18.42;;;;;;;2.09;77.52;101083.28;2930462;81;20937;-69
2022/01/17 18:16:02;;;;;;;29.25;16.70;;;;;;;2.17;77.78;101078.24;2930624;81;21022;-69
2022/01/17 18:20:06;;;;;;;10.45;6.33;;;;;;;2.11;77.67;101077.52;2930849;81;20965;-69
2022/01/17 18:24:08;;;;;;;27.77;11.43;;;;;;;2.13;77.59;101087.98;2930984;81;21012;-69
2022/01/17 18:28:12;;;;;;;20.55;8.88;;;;;;;2.16;77.92;101107.55;2906250;78;21093;-70
2022/01/17 18:32:14;;;;;;;19.42;7.53;;;;;;;2.17;78.38;101116.30;2944142;81;21469;-70
2022/01/17 18:36:16;;;;;;;13.78;6.30;;;;;;;2.05;78.43;101128.04;2943100;81;21430;-71
2022/01/17 18:40:20;;;;;;;17.60;10.35;;;;;;;2.10;79.02;101130.92;2943951;81;20958;-68
2022/01/17 18:44:22;;;;;;;85.57;33.65;;;;;;;2.10;80.11;101134.86;2944178;81;20977;-68
2022/01/17 18:48:28;;;;;;;73.80;36.42;;;;;;;2.08;80.21;101142.40;2944124;81;21013;-68
2022/01/17 18:52:38;;;;;;;45.73;20.20;;;;;;;1.98;80.04;101147.09;2943648;81;21012;-68
2022/01/17 18:56:35;;;;;;;8.80;5.12;;;;;;;1.97;80.17;101153.25;2943295;81;20982;-70
2022/01/17 19:00:38;;;;;;;12.70;4.87;;;;;;;2.05;80.77;101156.91;2901504;79;21034;-70
2022/01/17 19:04:42;;;;;;;16.40;4.75;;;;;;;2.08;80.89;101155.05;2887983;81;21019;-70
2022/01/17 19:08:43;;;;;;;8.55;4.83;;;;;;;1.99;81.48;101160.14;2887819;82;21034;-70
2022/01/17 19:12:46;;;;;;;23.92;6.75;;;;;;;2.00;81.60;101167.58;2888272;81;21006;-70
2022/01/17 19:16:50;;;;;;;11.28;4.62;;;;;;;2.00;81.80;101174.14;2888273;82;21003;-70
2022/01/17 19:25:07;;;;;;;14.73;7.05;;;;;;;1.98;81.80;101170.70;2888278;81;21057;-70
2022/01/17 19:29:09;;;;;;;13.38;6.78;;;;;;;1.95;82.24;101179.96;2920428;81;21026;-70
2022/01/17 19:33:11;;;;;;;18.35;6.12;;;;;;;1.89;82.28;101173.17;2930688;81;20995;-70
2022/01/17 19:37:12;;;;;;;23.38;8.18;;;;;;;1.89;81.88;101185.41;2930761;81;20999;-70